ハルビン の空港の天気 - METARとTAF

ハルビン太平国際空港 ( ZYHB / HRB ) - 中国 黒竜江省ハルビン市
飛行場実況気象(Metar)
観測時間10/16 14:00 CST (10/16 06:00 UTC)
風向・風速北北西 3m/s
視程10km以上
天気現象
なし
気温8℃
湿度37%
気圧1021hPa
METARZYHB 160600Z 33003MPS 260V010 CAVOK 08/M06 Q1021 NOSIG
過去の天気等 Google飛行場航空写真 Wunderground天気予報

過去48時間のMETAR

飛行場予報(TAF)
発表時間: 10/16 11:04 CST (10/16 03:04 UTC)
予報対象時間: 16日14時 CST ~ 17日14時 CST
風向・風速北西 4m/s
視程6000m
少しの雲 雲底高度 1010m
TAF ZYHB 160304Z 1606/1706 32004MPS 6000 FEW033 TX08/1606Z TNM02/21Z